sensor_id;sensor_type;location;lat;lon;timestamp;pressure;altitude;pressure_sealevel;temperature;humidity
15444;BME280;7822;48.146;11.576;2022-12-18T00:01:22;96463.91;;;-0.83;69.38
15444;BME280;7822;48.146;11.576;2022-12-18T00:03:51;96461.44;;;-0.88;69.67
15444;BME280;7822;48.146;11.576;2022-12-18T00:06:20;96453.69;;;-0.80;70.07
15444;BME280;7822;48.146;11.576;2022-12-18T00:08:48;96455.06;;;-0.62;70.05
15444;BME280;7822;48.146;11.576;2022-12-18T00:11:17;96449.47;;;-0.83;69.86
15444;BME280;7822;48.146;11.576;2022-12-18T00:13:46;96445.22;;;-0.82;69.92
15444;BME280;7822;48.146;11.576;2022-12-18T00:16:16;96450.34;;;-0.85;69.95
15444;BME280;7822;48.146;11.576;2022-12-18T00:18:49;96459.09;;;-1.00;70.50
15444;BME280;7822;48.146;11.576;2022-12-18T00:21:18;96459.22;;;-1.09;70.36
15444;BME280;7822;48.146;11.576;2022-12-18T00:23:48;96456.78;;;-1.16;70.74
15444;BME280;7822;48.146;11.576;2022-12-18T00:26:18;96452.47;;;-1.11;70.82
15444;BME280;7822;48.146;11.576;2022-12-18T00:28:48;96451.38;;;-0.95;70.22
15444;BME280;7822;48.146;11.576;2022-12-18T00:31:18;96443.81;;;-1.01;70.63
15444;BME280;7822;48.146;11.576;2022-12-18T00:33:47;96468.47;;;-1.02;70.42
15444;BME280;7822;48.146;11.576;2022-12-18T00:36:22;96488.13;;;-1.11;70.80
15444;BME280;7822;48.146;11.576;2022-12-18T00:38:50;96490.44;;;-0.96;71.20
15444;BME280;7822;48.146;11.576;2022-12-18T00:41:19;96486.28;;;-1.03;70.45
15444;BME280;7822;48.146;11.576;2022-12-18T00:44:02;96488.88;;;-1.05;70.70
15444;BME280;7822;48.146;11.576;2022-12-18T00:46:31;96486.38;;;-1.09;70.83
15444;BME280;7822;48.146;11.576;2022-12-18T00:48:58;96482.31;;;-1.19;70.73
15444;BME280;7822;48.146;11.576;2022-12-18T00:51:26;96488.34;;;-1.26;71.72
15444;BME280;7822;48.146;11.576;2022-12-18T00:53:54;96487.53;;;-1.30;71.32
15444;BME280;7822;48.146;11.576;2022-12-18T00:56:22;96496.88;;;-1.32;71.60
15444;BME280;7822;48.146;11.576;2022-12-18T00:58:50;96487.41;;;-1.19;72.09
15444;BME280;7822;48.146;11.576;2022-12-18T01:01:19;96493.38;;;-1.22;71.33
15444;BME280;7822;48.146;11.576;2022-12-18T01:03:47;96489.19;;;-1.27;71.21
15444;BME280;7822;48.146;11.576;2022-12-18T01:06:16;96494.22;;;-1.23;71.20
15444;BME280;7822;48.146;11.576;2022-12-18T01:08:44;96500.22;;;-1.27;71.21
15444;BME280;7822;48.146;11.576;2022-12-18T01:11:14;96498.63;;;-1.34;71.80
15444;BME280;7822;48.146;11.576;2022-12-18T01:13:42;96499.47;;;-1.33;71.77
15444;BME280;7822;48.146;11.576;2022-12-18T01:16:11;96510.50;;;-1.36;71.74
15444;BME280;7822;48.146;11.576;2022-12-18T01:18:40;96509.59;;;-1.32;71.75
15444;BME280;7822;48.146;11.576;2022-12-18T01:21:10;96517.72;;;-1.06;71.52
15444;BME280;7822;48.146;11.576;2022-12-18T01:23:37;96525.09;;;-0.86;70.94
15444;BME280;7822;48.146;11.576;2022-12-18T01:26:07;96524.41;;;-0.97;70.27
15444;BME280;7822;48.146;11.576;2022-12-18T01:28:35;96534.72;;;-1.08;70.24
15444;BME280;7822;48.146;11.576;2022-12-18T01:31:15;96540.72;;;-1.12;70.77
15444;BME280;7822;48.146;11.576;2022-12-18T01:33:48;96544.06;;;-1.07;70.91
15444;BME280;7822;48.146;11.576;2022-12-18T01:36:17;96544.09;;;-1.08;70.85
15444;BME280;7822;48.146;11.576;2022-12-18T01:38:49;96545.13;;;-1.23;71.17
15444;BME280;7822;48.146;11.576;2022-12-18T01:41:19;96551.13;;;-1.30;71.67
15444;BME280;7822;48.146;11.576;2022-12-18T01:43:50;96546.97;;;-1.32;71.18
15444;BME280;7822;48.146;11.576;2022-12-18T01:46:20;96548.69;;;-1.34;72.00
15444;BME280;7822;48.146;11.576;2022-12-18T01:48:52;96540.03;;;-1.21;71.41
15444;BME280;7822;48.146;11.576;2022-12-18T01:51:21;96551.97;;;-1.26;71.80
15444;BME280;7822;48.146;11.576;2022-12-18T01:53:49;96555.34;;;-1.27;71.45
15444;BME280;7822;48.146;11.576;2022-12-18T01:56:19;96548.59;;;-1.30;71.39
15444;BME280;7822;48.146;11.576;2022-12-18T01:58:53;96548.63;;;-1.31;71.68
15444;BME280;7822;48.146;11.576;2022-12-18T02:01:23;96552.94;;;-1.35;71.39
15444;BME280;7822;48.146;11.576;2022-12-18T02:03:53;96552.06;;;-1.35;71.80
15444;BME280;7822;48.146;11.576;2022-12-18T02:06:24;96539.38;;;-1.37;71.63
15444;BME280;7822;48.146;11.576;2022-12-18T02:09:02;96537.66;;;-1.36;72.12
15444;BME280;7822;48.146;11.576;2022-12-18T02:11:42;96549.56;;;-1.37;71.47
15444;BME280;7822;48.146;11.576;2022-12-18T02:14:19;96540.25;;;-1.41;71.48
15444;BME280;7822;48.146;11.576;2022-12-18T02:16:53;96524.13;;;-1.38;71.63
15444;BME280;7822;48.146;11.576;2022-12-18T02:19:42;96519.63;;;-1.20;71.41
15444;BME280;7822;48.146;11.576;2022-12-18T02:22:25;96528.19;;;-1.25;71.24
15444;BME280;7822;48.146;11.576;2022-12-18T02:25:04;96528.81;;;-1.10;70.74
15444;BME280;7822;48.146;11.576;2022-12-18T02:27:39;96528.13;;;-1.19;71.05
15444;BME280;7822;48.146;11.576;2022-12-18T02:30:08;96526.41;;;-1.20;70.97
15444;BME280;7822;48.146;11.576;2022-12-18T02:32:39;96533.09;;;-1.12;70.96
15444;BME280;7822;48.146;11.576;2022-12-18T02:35:13;96527.69;;;-0.92;70.40
15444;BME280;7822;48.146;11.576;2022-12-18T02:37:43;96531.88;;;-0.88;69.77
15444;BME280;7822;48.146;11.576;2022-12-18T02:40:14;96526.06;;;-0.96;70.09
15444;BME280;7822;48.146;11.576;2022-12-18T02:42:44;96530.44;;;-1.06;69.96
15444;BME280;7822;48.146;11.576;2022-12-18T02:45:12;96517.44;;;-0.86;69.99
15444;BME280;7822;48.146;11.576;2022-12-18T02:47:42;96518.56;;;-1.04;69.87
15444;BME280;7822;48.146;11.576;2022-12-18T02:50:16;96524.41;;;-0.99;70.23
15444;BME280;7822;48.146;11.576;2022-12-18T02:52:52;96525.22;;;-0.95;70.40
15444;BME280;7822;48.146;11.576;2022-12-18T02:55:35;96532.28;;;-1.14;70.41
15444;BME280;7822;48.146;11.576;2022-12-18T02:58:14;96540.84;;;-1.21;71.00
15444;BME280;7822;48.146;11.576;2022-12-18T03:00:48;96533.16;;;-1.15;70.76
15444;BME280;7822;48.146;11.576;2022-12-18T03:03:24;96534.78;;;-1.11;70.47
15444;BME280;7822;48.146;11.576;2022-12-18T03:05:56;96527.69;;;-0.92;70.37
15444;BME280;7822;48.146;11.576;2022-12-18T03:08:28;96526.78;;;-0.87;69.70
15444;BME280;7822;48.146;11.576;2022-12-18T03:10:59;96522.69;;;-0.95;70.07
15444;BME280;7822;48.146;11.576;2022-12-18T03:13:33;96519.31;;;-0.97;70.54
15444;BME280;7822;48.146;11.576;2022-12-18T03:16:06;96530.44;;;-1.06;70.22
15444;BME280;7822;48.146;11.576;2022-12-18T03:18:36;96520.00;;;-0.86;70.41
15444;BME280;7822;48.146;11.576;2022-12-18T03:21:06;96514.16;;;-0.93;69.74
15444;BME280;7822;48.146;11.576;2022-12-18T03:23:39;96515.22;;;-1.09;70.58
15444;BME280;7822;48.146;11.576;2022-12-18T03:26:11;96519.59;;;-1.17;70.36
15444;BME280;7822;48.146;11.576;2022-12-18T03:28:45;96521.34;;;-1.20;70.54
15444;BME280;7822;48.146;11.576;2022-12-18T03:31:15;96516.31;;;-1.25;71.08
15444;BME280;7822;48.146;11.576;2022-12-18T03:33:47;96528.06;;;-1.15;70.62
15444;BME280;7822;48.146;11.576;2022-12-18T03:36:18;96523.84;;;-1.17;71.19
15444;BME280;7822;48.146;11.576;2022-12-18T03:38:46;96531.59;;;-1.26;70.87
15444;BME280;7822;48.146;11.576;2022-12-18T03:41:18;96526.44;;;-1.23;70.99
15444;BME280;7822;48.146;11.576;2022-12-18T03:43:53;96533.22;;;-1.19;71.17
15444;BME280;7822;48.146;11.576;2022-12-18T03:46:26;96531.69;;;-1.32;71.03
15444;BME280;7822;48.146;11.576;2022-12-18T03:49:01;96541.88;;;-1.34;71.24
15444;BME280;7822;48.146;11.576;2022-12-18T03:51:36;96539.31;;;-1.34;71.13
15444;BME280;7822;48.146;11.576;2022-12-18T03:54:08;96533.41;;;-1.36;71.27
15444;BME280;7822;48.146;11.576;2022-12-18T03:56:40;96521.41;;;-1.26;71.51
15444;BME280;7822;48.146;11.576;2022-12-18T03:59:11;96533.31;;;-1.28;71.38
15444;BME280;7822;48.146;11.576;2022-12-18T04:01:43;96533.31;;;-1.28;71.05
15444;BME280;7822;48.146;11.576;2022-12-18T04:04:14;96539.28;;;-1.31;71.02
15444;BME280;7822;48.146;11.576;2022-12-18T04:06:44;96541.06;;;-1.36;71.11
15444;BME280;7822;48.146;11.576;2022-12-18T04:09:13;96535.13;;;-1.38;71.19
15444;BME280;7822;48.146;11.576;2022-12-18T04:11:42;96540.19;;;-1.35;71.92
15444;BME280;7822;48.146;11.576;2022-12-18T04:14:12;96535.94;;;-1.33;71.34
15444;BME280;7822;48.146;11.576;2022-12-18T04:16:43;96530.03;;;-1.36;71.79
15444;BME280;7822;48.146;11.576;2022-12-18T04:19:12;96533.38;;;-1.33;71.87
15444;BME280;7822;48.146;11.576;2022-12-18T04:21:39;96541.03;;;-1.33;71.24
15444;BME280;7822;48.146;11.576;2022-12-18T04:24:07;96531.56;;;-1.25;71.08
15444;BME280;7822;48.146;11.576;2022-12-18T04:26:35;96528.97;;;-1.20;70.78
15444;BME280;7822;48.146;11.576;2022-12-18T04:29:02;96538.88;;;-1.01;71.21
15444;BME280;7822;48.146;11.576;2022-12-18T04:31:32;96539.84;;;-1.09;70.56
15444;BME280;7822;48.146;11.576;2022-12-18T04:34:00;96555.25;;;-1.20;70.38
15444;BME280;7822;48.146;11.576;2022-12-18T04:36:27;96540.94;;;-1.27;71.39
15444;BME280;7822;48.146;11.576;2022-12-18T04:38:55;96540.94;;;-1.27;71.31
15444;BME280;7822;48.146;11.576;2022-12-18T04:41:23;96546.09;;;-1.31;71.38
15444;BME280;7822;48.146;11.576;2022-12-18T04:43:50;96540.91;;;-1.25;71.59
15444;BME280;7822;48.146;11.576;2022-12-18T04:46:18;96544.47;;;-0.79;70.59
15444;BME280;7822;48.146;11.576;2022-12-18T04:48:47;96554.19;;;-1.04;70.45
15444;BME280;7822;48.146;11.576;2022-12-18T04:51:15;96557.56;;;-1.03;70.17
15444;BME280;7822;48.146;11.576;2022-12-18T04:53:50;96567.88;;;-1.12;70.10
15444;BME280;7822;48.146;11.576;2022-12-18T04:56:17;96568.56;;;-1.01;70.46
15444;BME280;7822;48.146;11.576;2022-12-18T04:58:45;96565.06;;;-0.91;69.64
15444;BME280;7822;48.146;11.576;2022-12-18T05:01:14;96564.28;;;-0.98;69.97
15444;BME280;7822;48.146;11.576;2022-12-18T05:03:43;96567.69;;;-0.99;69.86
15444;BME280;7822;48.146;11.576;2022-12-18T05:06:13;96566.22;;;-1.13;70.45
15444;BME280;7822;48.146;11.576;2022-12-18T05:08:40;96564.63;;;-1.22;70.64
15444;BME280;7822;48.146;11.576;2022-12-18T05:11:09;96561.19;;;-1.19;70.76
15444;BME280;7822;48.146;11.576;2022-12-18T05:13:37;96566.38;;;-1.27;70.85
15444;BME280;7822;48.146;11.576;2022-12-18T05:16:06;96580.81;;;-1.27;71.16
15444;BME280;7822;48.146;11.576;2022-12-18T05:18:34;96578.28;;;-1.29;71.35
15444;BME280;7822;48.146;11.576;2022-12-18T05:21:03;96576.50;;;-1.22;71.68
15444;BME280;7822;48.146;11.576;2022-12-18T05:23:35;96576.91;;;-0.89;70.37
15444;BME280;7822;48.146;11.576;2022-12-18T05:26:05;96574.38;;;-0.92;70.49
15444;BME280;7822;48.146;11.576;2022-12-18T05:28:35;96570.91;;;-0.85;70.02
15444;BME280;7822;48.146;11.576;2022-12-18T05:31:04;96572.56;;;-0.82;69.49
15444;BME280;7822;48.146;11.576;2022-12-18T05:33:34;96571.88;;;-0.95;69.35
15444;BME280;7822;48.146;11.576;2022-12-18T05:36:04;96582.28;;;-1.08;70.28
15444;BME280;7822;48.146;11.576;2022-12-18T05:38:35;96583.81;;;-0.98;70.92
15444;BME280;7822;48.146;11.576;2022-12-18T05:41:04;96583.97;;;-1.09;70.42
15444;BME280;7822;48.146;11.576;2022-12-18T05:43:34;96589.13;;;-1.13;70.59
15444;BME280;7822;48.146;11.576;2022-12-18T05:46:04;96584.97;;;-1.22;70.79
15444;BME280;7822;48.146;11.576;2022-12-18T05:48:32;96583.31;;;-1.24;70.41
15444;BME280;7822;48.146;11.576;2022-12-18T05:51:04;96594.41;;;-1.30;70.84
15444;BME280;7822;48.146;11.576;2022-12-18T05:53:33;96591.53;;;-1.04;70.07
15444;BME280;7822;48.146;11.576;2022-12-18T05:56:04;96595.06;;;-0.53;68.14
15444;BME280;7822;48.146;11.576;2022-12-18T05:58:32;96598.06;;;-0.30;66.75
15444;BME280;7822;48.146;11.576;2022-12-18T06:01:06;96604.38;;;-0.51;67.48
15444;BME280;7822;48.146;11.576;2022-12-18T06:03:34;96595.41;;;-0.79;68.35
15444;BME280;7822;48.146;11.576;2022-12-18T06:06:02;96600.56;;;-0.82;68.62
15444;BME280;7822;48.146;11.576;2022-12-18T06:08:30;96605.63;;;-0.81;68.52
15444;BME280;7822;48.146;11.576;2022-12-18T06:10:59;96593.25;;;-0.47;67.63
15444;BME280;7822;48.146;11.576;2022-12-18T06:13:26;96596.97;;;-0.70;67.29
15444;BME280;7822;48.146;11.576;2022-12-18T06:15:54;96597.84;;;-0.68;67.37
15444;BME280;7822;48.146;11.576;2022-12-18T06:18:22;96595.25;;;-0.67;67.31
15444;BME280;7822;48.146;11.576;2022-12-18T06:20:54;96598.03;;;-0.84;68.65
15444;BME280;7822;48.146;11.576;2022-12-18T06:23:22;96593.81;;;-0.85;68.79
15444;BME280;7822;48.146;11.576;2022-12-18T06:25:50;96600.78;;;-0.99;69.44
15444;BME280;7822;48.146;11.576;2022-12-18T06:28:19;96605.25;;;-1.13;69.31
15444;BME280;7822;48.146;11.576;2022-12-18T06:30:47;96605.94;;;-1.03;69.23
15444;BME280;7822;48.146;11.576;2022-12-18T06:33:15;96610.63;;;-0.73;68.58
15444;BME280;7822;48.146;11.576;2022-12-18T06:35:43;96608.84;;;-0.68;67.23
15444;BME280;7822;48.146;11.576;2022-12-18T06:38:11;96622.56;;;-0.77;67.50
15444;BME280;7822;48.146;11.576;2022-12-18T06:40:38;96624.28;;;-0.79;67.27
15444;BME280;7822;48.146;11.576;2022-12-18T06:43:06;96627.00;;;-0.92;68.06
15444;BME280;7822;48.146;11.576;2022-12-18T06:45:35;96621.22;;;-1.03;69.00
15444;BME280;7822;48.146;11.576;2022-12-18T06:48:03;96632.81;;;-0.81;68.93
15444;BME280;7822;48.146;11.576;2022-12-18T06:50:30;96633.63;;;-0.79;68.39
15444;BME280;7822;48.146;11.576;2022-12-18T06:52:59;96629.56;;;-0.92;68.36
15444;BME280;7822;48.146;11.576;2022-12-18T06:55:27;96628.97;;;-1.11;68.88
15444;BME280;7822;48.146;11.576;2022-12-18T06:57:55;96640.97;;;-1.22;69.69
15444;BME280;7822;48.146;11.576;2022-12-18T07:00:23;96646.16;;;-1.28;69.97
15444;BME280;7822;48.146;11.576;2022-12-18T07:02:52;96645.38;;;-1.36;69.70
15444;BME280;7822;48.146;11.576;2022-12-18T07:05:20;96646.97;;;-1.27;70.12
15444;BME280;7822;48.146;11.576;2022-12-18T07:07:48;96660.66;;;-1.34;70.34
15444;BME280;7822;48.146;11.576;2022-12-18T07:10:16;96660.69;;;-1.39;70.64
15444;BME280;7822;48.146;11.576;2022-12-18T07:12:43;96653.94;;;-1.41;70.87
15444;BME280;7822;48.146;11.576;2022-12-18T07:15:13;96667.47;;;-1.41;70.93
15444;BME280;7822;48.146;11.576;2022-12-18T07:17:41;96659.94;;;-1.48;70.53
15444;BME280;7822;48.146;11.576;2022-12-18T07:20:10;96664.19;;;-1.51;70.82
15444;BME280;7822;48.146;11.576;2022-12-18T07:22:38;96670.09;;;-1.47;70.76
15444;BME280;7822;48.146;11.576;2022-12-18T07:25:07;96674.34;;;-1.49;70.69
15444;BME280;7822;48.146;11.576;2022-12-18T07:27:34;96684.56;;;-1.52;71.04
15444;BME280;7822;48.146;11.576;2022-12-18T07:30:03;96682.84;;;-1.52;70.90
15444;BME280;7822;48.146;11.576;2022-12-18T07:32:31;96682.75;;;-1.39;70.96
15444;BME280;7822;48.146;11.576;2022-12-18T07:34:58;96673.22;;;-1.22;70.23
15444;BME280;7822;48.146;11.576;2022-12-18T07:37:27;96674.13;;;-1.28;70.14
15444;BME280;7822;48.146;11.576;2022-12-18T07:39:55;96669.97;;;-1.35;69.95
15444;BME280;7822;48.146;11.576;2022-12-18T07:42:23;96672.28;;;-1.15;70.31
15444;BME280;7822;48.146;11.576;2022-12-18T07:44:59;96653.69;;;-1.23;70.14
15444;BME280;7822;48.146;11.576;2022-12-18T07:47:34;96661.22;;;-1.11;69.55
15444;BME280;7822;48.146;11.576;2022-12-18T07:50:02;96662.22;;;-1.24;nan
15444;BME280;7822;48.146;11.576;2022-12-18T07:52:33;96672.41;;;-1.26;69.99
15444;BME280;7822;48.146;11.576;2022-12-18T07:55:00;96667.34;;;-1.29;69.61
15444;BME280;7822;48.146;11.576;2022-12-18T07:57:28;96666.50;;;-1.28;70.06
15444;BME280;7822;48.146;11.576;2022-12-18T08:00:16;96664.78;;;-1.27;70.03
15444;BME280;7822;48.146;11.576;2022-12-18T08:02:44;96674.19;;;-1.34;70.33
15444;BME280;7822;48.146;11.576;2022-12-18T08:05:14;96678.47;;;-1.37;70.38
15444;BME280;7822;48.146;11.576;2022-12-18T08:07:43;96686.09;;;-1.36;70.69
15444;BME280;7822;48.146;11.576;2022-12-18T08:10:10;96678.31;;;-1.25;70.02
15444;BME280;7822;48.146;11.576;2022-12-18T08:12:38;96688.38;;;-1.13;70.16
15444;BME280;7822;48.146;11.576;2022-12-18T08:15:06;96698.59;;;-1.15;70.04
15444;BME280;7822;48.146;11.576;2022-12-18T08:17:34;96694.28;;;-1.08;69.27
15444;BME280;7822;48.146;11.576;2022-12-18T08:20:02;96695.84;;;-0.98;69.15
15444;BME280;7822;48.146;11.576;2022-12-18T08:22:33;96701.38;;;-0.64;67.04
15444;BME280;7822;48.146;11.576;2022-12-18T08:25:03;96699.03;;;-0.80;68.03
15444;BME280;7822;48.146;11.576;2022-12-18T08:27:31;96704.28;;;-0.93;68.67
15444;BME280;7822;48.146;11.576;2022-12-18T08:29:59;96698.41;;;-1.00;68.57
15444;BME280;7822;48.146;11.576;2022-12-18T08:32:27;96699.19;;;-0.95;68.13
15444;BME280;7822;48.146;11.576;2022-12-18T08:34:55;96695.69;;;-0.85;68.09
15444;BME280;7822;48.146;11.576;2022-12-18T08:37:22;96689.75;;;-0.87;67.46
15444;BME280;7822;48.146;11.576;2022-12-18T08:39:50;96696.63;;;-0.93;67.69
15444;BME280;7822;48.146;11.576;2022-12-18T08:42:19;96699.25;;;-1.01;67.58
15444;BME280;7822;48.146;11.576;2022-12-18T08:45:05;96697.75;;;-1.15;67.36
15444;BME280;7822;48.146;11.576;2022-12-18T08:47:33;96695.19;;;-1.15;67.61
15444;BME280;7822;48.146;11.576;2022-12-18T08:50:00;96707.09;;;-1.17;68.67
15444;BME280;7822;48.146;11.576;2022-12-18T08:52:28;96712.25;;;-1.25;69.34
15444;BME280;7822;48.146;11.576;2022-12-18T08:54:56;96705.50;;;-1.26;69.42
15444;BME280;7822;48.146;11.576;2022-12-18T08:57:28;96702.72;;;-1.05;68.89
15444;BME280;7822;48.146;11.576;2022-12-18T08:59:55;96703.28;;;-0.82;67.69
15444;BME280;7822;48.146;11.576;2022-12-18T09:02:23;96703.84;;;-0.60;66.49
15444;BME280;7822;48.146;11.576;2022-12-18T09:04:51;96709.75;;;-0.56;66.18
15444;BME280;7822;48.146;11.576;2022-12-18T09:07:23;96709.00;;;-0.64;66.14
15444;BME280;7822;48.146;11.576;2022-12-18T09:09:50;96714.09;;;-0.64;66.60
15444;BME280;7822;48.146;11.576;2022-12-18T09:12:20;96709.97;;;-0.75;67.43
15444;BME280;7822;48.146;11.576;2022-12-18T09:14:51;96712.47;;;-0.68;66.81
15444;BME280;7822;48.146;11.576;2022-12-18T09:17:18;96716.66;;;-0.64;66.55
15444;BME280;7822;48.146;11.576;2022-12-18T09:19:46;96721.94;;;-0.81;67.44
15444;BME280;7822;48.146;11.576;2022-12-18T09:22:14;96714.91;;;-0.61;67.64
15444;BME280;7822;48.146;11.576;2022-12-18T09:24:41;96707.50;;;-0.81;67.69
15444;BME280;7822;48.146;11.576;2022-12-18T09:27:09;96711.16;;;-1.00;67.89
15444;BME280;7822;48.146;11.576;2022-12-18T09:29:45;96712.75;;;-0.93;67.75
15444;BME280;7822;48.146;11.576;2022-12-18T09:32:15;96703.72;;;-0.52;66.23
15444;BME280;7822;48.146;11.576;2022-12-18T09:34:48;96710.47;;;-0.47;65.85
15444;BME280;7822;48.146;11.576;2022-12-18T09:37:19;96708.06;;;-0.57;66.07
15444;BME280;7822;48.146;11.576;2022-12-18T09:39:47;96703.78;;;-0.57;66.84
15444;BME280;7822;48.146;11.576;2022-12-18T09:42:20;96707.84;;;-0.41;66.07
15444;BME280;7822;48.146;11.576;2022-12-18T09:44:50;96703.63;;;-0.43;66.38
15444;BME280;7822;48.146;11.576;2022-12-18T09:47:22;96703.03;;;-0.62;66.76
15444;BME280;7822;48.146;11.576;2022-12-18T09:49:56;96704.03;;;-0.73;67.62
15444;BME280;7822;48.146;11.576;2022-12-18T09:52:27;96705.69;;;-0.71;65.06
15444;BME280;7822;48.146;11.576;2022-12-18T09:54:59;96699.00;;;-0.81;66.36
15444;BME280;7822;48.146;11.576;2022-12-18T09:57:29;96702.34;;;-0.76;65.73
15444;BME280;7822;48.146;11.576;2022-12-18T10:00:04;96698.09;;;-0.74;66.21
15444;BME280;7822;48.146;11.576;2022-12-18T10:02:34;96696.41;;;-0.75;66.54
15444;BME280;7822;48.146;11.576;2022-12-18T10:05:09;96692.94;;;-0.69;66.59
15444;BME280;7822;48.146;11.576;2022-12-18T10:07:45;96691.06;;;-0.57;66.26
15444;BME280;7822;48.146;11.576;2022-12-18T10:10:25;96690.16;;;-0.51;65.67
15444;BME280;7822;48.146;11.576;2022-12-18T10:12:58;96684.28;;;-0.58;65.83
15444;BME280;7822;48.146;11.576;2022-12-18T10:15:34;96689.59;;;-0.75;66.58
15444;BME280;7822;48.146;11.576;2022-12-18T10:18:18;96676.84;;;-0.71;67.07
15444;BME280;7822;48.146;11.576;2022-12-18T10:20:52;96672.25;;;-0.48;65.63
15444;BME280;7822;48.146;11.576;2022-12-18T10:23:26;96680.16;;;-0.66;65.23
15444;BME280;7822;48.146;11.576;2022-12-18T10:26:00;96684.97;;;-1.12;66.34
15444;BME280;7822;48.146;11.576;2022-12-18T10:28:30;96685.50;;;-1.59;67.29
15444;BME280;7822;48.146;11.576;2022-12-18T10:30:58;96673.50;;;-1.50;67.82
15444;BME280;7822;48.146;11.576;2022-12-18T10:33:30;96667.44;;;-1.35;68.13
15444;BME280;7822;48.146;11.576;2022-12-18T10:35:59;96663.25;;;-1.39;68.31
15444;BME280;7822;48.146;11.576;2022-12-18T10:38:28;96653.00;;;-1.34;68.25
15444;BME280;7822;48.146;11.576;2022-12-18T10:40:58;96652.78;;;-1.16;68.38
15444;BME280;7822;48.146;11.576;2022-12-18T10:43:28;96653.22;;;-0.83;67.01
15444;BME280;7822;48.146;11.576;2022-12-18T10:46:14;96659.03;;;-0.75;66.24
15444;BME280;7822;48.146;11.576;2022-12-18T10:48:55;96664.03;;;-1.35;66.87
15444;BME280;7822;48.146;11.576;2022-12-18T10:51:26;96661.66;;;-1.51;67.28
15444;BME280;7822;48.146;11.576;2022-12-18T10:53:59;96656.63;;;-1.57;68.46
15444;BME280;7822;48.146;11.576;2022-12-18T10:56:30;96657.34;;;-1.44;67.82
15444;BME280;7822;48.146;11.576;2022-12-18T10:59:00;96651.34;;;-1.37;67.87
15444;BME280;7822;48.146;11.576;2022-12-18T11:01:45;96657.22;;;-1.33;67.74
15444;BME280;7822;48.146;11.576;2022-12-18T11:04:19;96663.22;;;-1.37;68.60
15444;BME280;7822;48.146;11.576;2022-12-18T11:06:58;96670.69;;;-1.25;68.20
15444;BME280;7822;48.146;11.576;2022-12-18T11:09:27;96674.06;;;-1.23;68.07
15444;BME280;7822;48.146;11.576;2022-12-18T11:11:57;96680.94;;;-1.28;68.45
15444;BME280;7822;48.146;11.576;2022-12-18T11:14:28;96676.59;;;-1.20;68.03
15444;BME280;7822;48.146;11.576;2022-12-18T11:16:58;96679.63;;;-0.91;67.16
15444;BME280;7822;48.146;11.576;2022-12-18T11:19:53;96680.34;;;-0.80;66.48
15444;BME280;7822;48.146;11.576;2022-12-18T11:22:24;96677.13;;;-0.94;65.54
15444;BME280;7822;48.146;11.576;2022-12-18T11:24:56;96680.72;;;-1.10;66.32
15444;BME280;7822;48.146;11.576;2022-12-18T11:27:51;96673.91;;;-1.08;66.50
15444;BME280;7822;48.146;11.576;2022-12-18T11:30:25;96682.59;;;-1.26;66.83
15444;BME280;7822;48.146;11.576;2022-12-18T11:32:56;96672.50;;;-1.35;67.36
15444;BME280;7822;48.146;11.576;2022-12-18T11:35:47;96680.16;;;-1.38;67.79
15444;BME280;7822;48.146;11.576;2022-12-18T11:38:23;96671.66;;;-1.35;67.67
15444;BME280;7822;48.146;11.576;2022-12-18T11:40:56;96666.63;;;-1.40;67.73
15444;BME280;7822;48.146;11.576;2022-12-18T11:43:28;96656.38;;;-1.34;67.54
15444;BME280;7822;48.146;11.576;2022-12-18T11:46:01;96653.69;;;-1.23;68.05
15444;BME280;7822;48.146;11.576;2022-12-18T11:48:33;96658.00;;;-1.27;66.91
15444;BME280;7822;48.146;11.576;2022-12-18T11:51:04;96647.69;;;-1.15;67.01
15444;BME280;7822;48.146;11.576;2022-12-18T11:53:36;96635.66;;;-1.05;67.44
15444;BME280;7822;48.146;11.576;2022-12-18T11:56:19;96649.22;;;-1.02;66.91
15444;BME280;7822;48.146;11.576;2022-12-18T11:58:57;96657.56;;;-0.92;67.24
15444;BME280;7822;48.146;11.576;2022-12-18T12:01:35;96648.19;;;-0.89;67.06
15444;BME280;7822;48.146;11.576;2022-12-18T12:04:31;96642.41;;;-1.01;67.56
15444;BME280;7822;48.146;11.576;2022-12-18T12:07:15;96646.41;;;-0.82;67.25
15444;BME280;7822;48.146;11.576;2022-12-18T12:09:56;96643.69;;;-0.70;66.03
15444;BME280;7822;48.146;11.576;2022-12-18T12:12:35;96638.59;;;-0.70;66.36
15444;BME280;7822;48.146;11.576;2022-12-18T12:15:25;96649.63;;;-0.69;65.86
15444;BME280;7822;48.146;11.576;2022-12-18T12:18:00;96648.34;;;-0.99;66.72
15444;BME280;7822;48.146;11.576;2022-12-18T12:20:44;96646.88;;;-1.20;67.64
15444;BME280;7822;48.146;11.576;2022-12-18T12:23:30;96641.94;;;-1.30;67.75
15444;BME280;7822;48.146;11.576;2022-12-18T12:26:06;96637.78;;;-1.39;68.69
15444;BME280;7822;48.146;11.576;2022-12-18T12:29:01;96629.34;;;-1.42;68.69
15444;BME280;7822;48.146;11.576;2022-12-18T12:31:46;96631.00;;;-1.40;68.78
15444;BME280;7822;48.146;11.576;2022-12-18T12:34:17;96632.72;;;-1.42;68.42
15444;BME280;7822;48.146;11.576;2022-12-18T12:36:58;96629.19;;;-1.29;68.47
15444;BME280;7822;48.146;11.576;2022-12-18T12:39:34;96617.34;;;-1.31;68.79
15444;BME280;7822;48.146;11.576;2022-12-18T12:42:05;96621.63;;;-1.35;68.36
15444;BME280;7822;48.146;11.576;2022-12-18T12:44:54;96621.69;;;-1.39;68.40
15444;BME280;7822;48.146;11.576;2022-12-18T12:47:25;96632.66;;;-1.36;68.30
15444;BME280;7822;48.146;11.576;2022-12-18T12:49:56;96625.06;;;-1.39;68.70
15444;BME280;7822;48.146;11.576;2022-12-18T12:52:29;96620.75;;;-1.34;68.18
15444;BME280;7822;48.146;11.576;2022-12-18T12:55:00;96617.63;;;-0.90;66.09
15444;BME280;7822;48.146;11.576;2022-12-18T12:57:34;96622.72;;;-0.87;66.92
15444;BME280;7822;48.146;11.576;2022-12-18T13:00:05;96623.38;;;-0.73;66.38
15444;BME280;7822;48.146;11.576;2022-12-18T13:02:39;96628.34;;;-0.64;66.05
15444;BME280;7822;48.146;11.576;2022-12-18T13:05:17;96638.59;;;-0.70;65.83
15444;BME280;7822;48.146;11.576;2022-12-18T13:07:50;96636.03;;;-0.68;65.64
15444;BME280;7822;48.146;11.576;2022-12-18T13:10:33;96637.00;;;-0.79;66.50
15444;BME280;7822;48.146;11.576;2022-12-18T13:13:04;96630.72;;;-0.53;66.58
15444;BME280;7822;48.146;11.576;2022-12-18T13:15:38;96629.06;;;-0.56;66.48
15444;BME280;7822;48.146;11.576;2022-12-18T13:18:17;96642.09;;;-0.79;66.90
15444;BME280;7822;48.146;11.576;2022-12-18T13:20:49;96643.94;;;-0.90;66.98
15444;BME280;7822;48.146;11.576;2022-12-18T13:23:31;96649.31;;;-1.09;67.61